createdAt,value
2023-01-28T00:00:27.533Z,47.21
2023-01-28T00:01:27.529Z,45.76
2023-01-28T00:02:27.533Z,47.37
2023-01-28T00:03:27.578Z,48.98
2023-01-28T00:04:27.501Z,47.05
2023-01-28T00:05:27.476Z,48.02
2023-01-28T00:06:27.477Z,50.11
2023-01-28T00:07:27.480Z,48.34
2023-01-28T00:08:27.452Z,47.21
2023-01-28T00:09:27.426Z,48.18
2023-01-28T00:10:27.457Z,48.50
2023-01-28T00:11:27.425Z,50.60
2023-01-28T00:12:27.409Z,47.70
2023-01-28T00:13:27.432Z,48.02
2023-01-28T00:14:27.395Z,47.86
2023-01-28T00:15:27.379Z,46.73
2023-01-28T00:16:27.488Z,46.08
2023-01-28T00:17:27.371Z,49.15
2023-01-28T00:18:27.342Z,48.02
2023-01-28T00:19:27.350Z,53.66
2023-01-28T00:20:27.341Z,48.50
2023-01-28T00:21:27.313Z,50.92
2023-01-28T00:22:27.319Z,52.85
2023-01-28T00:23:27.325Z,51.24
2023-01-28T00:24:27.369Z,46.41
2023-01-28T00:25:27.283Z,45.60
2023-01-28T00:26:27.287Z,49.31
2023-01-28T00:27:27.233Z,45.28
2023-01-28T00:28:27.243Z,51.56
2023-01-28T00:29:27.249Z,52.53
2023-01-28T00:30:27.230Z,47.53
2023-01-28T00:31:27.379Z,49.63
2023-01-28T00:32:27.238Z,48.82
2023-01-28T00:33:27.201Z,48.98
2023-01-28T00:34:27.186Z,45.44
2023-01-28T00:35:27.153Z,49.31
2023-01-28T00:36:27.176Z,48.98
2023-01-28T00:37:27.166Z,47.37
2023-01-28T00:38:27.146Z,46.73
2023-01-28T00:39:27.107Z,48.50
2023-01-28T00:40:27.107Z,46.89
2023-01-28T00:41:27.147Z,46.73
2023-01-28T00:42:27.087Z,47.53
2023-01-28T00:43:27.110Z,48.02
2023-01-28T00:44:27.078Z,46.57
2023-01-28T00:45:27.044Z,49.79
2023-01-28T00:46:27.069Z,48.18
2023-01-28T00:47:27.062Z,46.25
2023-01-28T00:48:27.057Z,47.86
2023-01-28T00:49:27.026Z,49.79
2023-01-28T00:50:27.024Z,48.66
2023-01-28T00:51:26.989Z,46.25
2023-01-28T00:52:27.010Z,46.89
2023-01-28T00:53:27.009Z,47.70
2023-01-28T00:54:26.978Z,46.73
2023-01-28T00:55:26.938Z,46.73
2023-01-28T00:56:26.955Z,45.28
2023-01-28T00:57:26.971Z,48.98
2023-01-28T00:58:26.910Z,48.18
2023-01-28T00:59:26.942Z,48.82
2023-01-28T01:00:26.930Z,48.66
2023-01-28T01:01:26.942Z,47.53
2023-01-28T01:02:26.916Z,46.57
2023-01-28T01:03:26.884Z,47.53
2023-01-28T01:04:27.111Z,48.50
2023-01-28T01:05:26.858Z,48.50
2023-01-28T01:06:26.847Z,46.25
2023-01-28T01:07:26.858Z,45.76
2023-01-28T01:08:26.817Z,47.53
2023-01-28T01:09:26.792Z,46.41
2023-01-28T01:10:26.800Z,50.60
2023-01-28T01:11:26.818Z,46.73
2023-01-28T01:12:26.797Z,48.50
2023-01-28T01:13:26.759Z,48.66
2023-01-28T01:14:26.781Z,45.44
2023-01-28T01:15:26.733Z,45.28
2023-01-28T01:16:26.740Z,46.73
2023-01-28T01:17:26.750Z,49.63
2023-01-28T01:18:26.754Z,46.89
2023-01-28T01:19:26.700Z,48.18
2023-01-28T01:20:26.718Z,47.21
2023-01-28T01:21:26.707Z,47.21
2023-01-28T01:22:26.672Z,50.11
2023-01-28T01:23:26.699Z,43.83
2023-01-28T01:24:26.678Z,44.15
2023-01-28T01:25:26.642Z,43.18
2023-01-28T01:26:26.646Z,43.99
2023-01-28T01:27:26.654Z,43.18
2023-01-28T01:28:26.643Z,43.67
2023-01-28T01:29:26.592Z,44.31
2023-01-28T01:30:26.614Z,44.63
2023-01-28T01:31:26.605Z,46.73
2023-01-28T01:32:26.586Z,43.99
2023-01-28T01:33:26.605Z,46.08
2023-01-28T01:34:26.572Z,47.21
2023-01-28T01:35:26.531Z,44.47
2023-01-28T01:36:26.533Z,47.86
2023-01-28T01:37:26.540Z,50.60
2023-01-28T01:38:26.579Z,47.05
2023-01-28T01:39:26.499Z,46.57
2023-01-28T01:40:26.489Z,46.25
2023-01-28T01:41:26.486Z,49.15
2023-01-28T01:42:27.492Z,47.05
2023-01-28T01:43:26.465Z,46.57
2023-01-28T01:44:26.453Z,46.41
2023-01-28T01:45:26.453Z,47.86
2023-01-28T01:46:26.442Z,47.37
2023-01-28T01:47:26.443Z,48.50
2023-01-28T01:48:26.421Z,50.11
2023-01-28T01:49:26.405Z,50.92
2023-01-28T01:50:26.410Z,49.63
2023-01-28T01:51:26.392Z,46.57
2023-01-28T01:52:26.375Z,45.76
2023-01-28T01:53:26.365Z,48.18
2023-01-28T01:54:26.370Z,47.21
2023-01-28T01:55:26.333Z,43.99
2023-01-28T01:56:26.313Z,44.15
2023-01-28T01:57:26.329Z,46.57
2023-01-28T01:58:26.300Z,46.73
2023-01-28T01:59:26.287Z,45.60
2023-01-28T02:00:26.293Z,44.47
2023-01-28T02:01:26.285Z,44.96
2023-01-28T02:02:26.341Z,44.63
2023-01-28T02:03:26.266Z,51.24
2023-01-28T02:04:26.250Z,49.47
2023-01-28T02:05:26.205Z,47.53
2023-01-28T02:06:26.238Z,46.41
2023-01-28T02:07:26.220Z,47.53
2023-01-28T02:08:26.191Z,46.25
2023-01-28T02:09:26.163Z,48.66
2023-01-28T02:10:26.168Z,45.12
2023-01-28T02:11:26.181Z,52.37
2023-01-28T02:12:26.157Z,46.41
2023-01-28T02:13:26.119Z,45.60
2023-01-28T02:14:31.317Z,51.40
2023-01-28T02:15:28.142Z,47.70
2023-01-28T02:16:26.138Z,48.66
2023-01-28T02:17:26.095Z,47.21
2023-01-28T02:18:26.109Z,44.79
2023-01-28T02:19:26.073Z,47.86
2023-01-28T02:20:26.076Z,45.44
2023-01-28T02:21:26.064Z,49.31
2023-01-28T02:22:26.052Z,47.86
2023-01-28T02:23:26.015Z,45.44
2023-01-28T02:24:26.062Z,45.28
2023-01-28T02:25:26.068Z,45.28
2023-01-28T02:26:25.981Z,47.21
2023-01-28T02:27:26.007Z,45.12
2023-01-28T02:28:25.989Z,45.12
2023-01-28T02:29:25.962Z,44.96
2023-01-28T02:30:25.948Z,44.63
2023-01-28T02:31:26.051Z,44.63
2023-01-28T02:32:25.949Z,45.76
2023-01-28T02:33:25.911Z,49.95
2023-01-28T02:34:25.926Z,46.25
2023-01-28T02:35:25.902Z,44.15
2023-01-28T02:36:25.908Z,48.34
2023-01-28T02:37:25.908Z,47.53
2023-01-28T02:38:25.868Z,48.50
2023-01-28T02:39:25.843Z,47.53
2023-01-28T02:40:25.842Z,46.25
2023-01-28T02:41:26.843Z,46.08
2023-01-28T02:42:25.840Z,46.25
2023-01-28T02:43:25.800Z,48.98
2023-01-28T02:44:25.808Z,44.79
2023-01-28T02:45:25.806Z,44.96
2023-01-28T02:46:25.799Z,46.41
2023-01-28T02:47:25.767Z,47.21
2023-01-28T02:48:25.762Z,46.73
2023-01-28T02:49:25.784Z,47.05
2023-01-28T02:50:25.719Z,47.05
2023-01-28T02:51:25.746Z,46.73
2023-01-28T02:52:25.721Z,48.66
2023-01-28T02:53:25.705Z,48.82
2023-01-28T02:54:25.705Z,45.12
2023-01-28T02:55:25.699Z,50.11
2023-01-28T02:56:25.688Z,45.92
2023-01-28T02:57:25.663Z,47.86
2023-01-28T02:58:25.669Z,47.21
2023-01-28T02:59:25.669Z,47.86
2023-01-28T03:00:25.633Z,47.21
2023-01-28T03:01:25.677Z,48.82
2023-01-28T03:02:25.631Z,45.76
2023-01-28T03:03:25.610Z,45.12
2023-01-28T03:04:25.605Z,44.15
2023-01-28T03:05:25.592Z,45.28
2023-01-28T03:06:25.553Z,45.60
2023-01-28T03:07:25.579Z,47.86
2023-01-28T03:08:25.544Z,50.76
2023-01-28T03:09:26.542Z,46.25
2023-01-28T03:10:25.520Z,47.21
2023-01-28T03:11:25.545Z,46.73
2023-01-28T03:12:25.527Z,48.50
2023-01-28T03:13:25.482Z,48.18
2023-01-28T03:14:25.489Z,48.98
2023-01-28T03:15:25.492Z,47.86
2023-01-28T03:16:25.472Z,51.40
2023-01-28T03:17:26.666Z,49.47
2023-01-28T03:18:26.447Z,49.63
2023-01-28T03:19:25.445Z,47.21
2023-01-28T03:20:25.424Z,44.96
2023-01-28T03:21:25.410Z,49.63
2023-01-28T03:22:25.438Z,45.76
2023-01-28T03:23:25.379Z,44.63
2023-01-28T03:24:25.458Z,44.79
2023-01-28T03:25:25.387Z,45.44
2023-01-28T03:26:25.378Z,46.08
2023-01-28T03:27:25.362Z,44.15
2023-01-28T03:28:25.328Z,43.51
2023-01-28T03:29:25.340Z,43.83
2023-01-28T03:30:25.310Z,44.96
2023-01-28T03:31:25.320Z,43.34
2023-01-28T03:32:25.355Z,44.79
2023-01-28T03:33:25.281Z,43.99
2023-01-28T03:34:25.270Z,44.96
2023-01-28T03:35:25.275Z,45.92
2023-01-28T03:36:25.249Z,45.12
2023-01-28T03:37:25.245Z,44.79
2023-01-28T03:38:25.254Z,44.63
2023-01-28T03:39:25.211Z,43.99
2023-01-28T03:40:25.206Z,45.12
2023-01-28T03:41:25.205Z,49.79
2023-01-28T03:42:25.211Z,47.21
2023-01-28T03:43:25.185Z,47.21
2023-01-28T03:44:25.167Z,50.11
2023-01-28T03:45:25.171Z,46.73
2023-01-28T03:46:25.227Z,46.08
2023-01-28T03:47:25.164Z,44.47
2023-01-28T03:48:25.133Z,45.60
2023-01-28T03:49:25.096Z,48.98
2023-01-28T03:50:25.101Z,48.18
2023-01-28T03:51:25.102Z,43.99
2023-01-28T03:52:25.095Z,43.67
2023-01-28T03:53:25.059Z,44.31
2023-01-28T03:54:25.069Z,43.83
2023-01-28T03:55:25.032Z,46.89
2023-01-28T03:56:25.044Z,44.47
2023-01-28T03:57:25.056Z,49.95
2023-01-28T03:58:25.013Z,44.15
2023-01-28T03:59:24.997Z,46.73
2023-01-28T04:00:25.004Z,46.73
2023-01-28T04:01:25.044Z,45.92
2023-01-28T04:02:25.007Z,45.28
2023-01-28T04:03:24.997Z,51.40
2023-01-28T04:04:24.951Z,44.31
2023-01-28T04:05:24.947Z,44.15
2023-01-28T04:06:24.940Z,45.92
2023-01-28T04:07:24.955Z,47.21
2023-01-28T04:08:24.916Z,46.89
2023-01-28T04:09:24.883Z,47.21
2023-01-28T04:10:24.927Z,46.73
2023-01-28T04:11:24.870Z,46.89
2023-01-28T04:12:24.861Z,46.25
2023-01-28T04:13:24.881Z,48.98
2023-01-28T04:14:24.845Z,45.60
2023-01-28T04:15:24.828Z,47.86
2023-01-28T04:16:24.886Z,46.89
2023-01-28T04:17:24.833Z,45.28
2023-01-28T04:18:24.822Z,48.02
2023-01-28T04:19:24.771Z,44.63
2023-01-28T04:20:24.818Z,48.50
2023-01-28T04:21:24.791Z,49.31
2023-01-28T04:22:24.762Z,46.25
2023-01-28T04:23:24.739Z,46.08
2023-01-28T04:24:24.779Z,48.82
2023-01-28T04:25:24.765Z,46.57
2023-01-28T04:26:24.717Z,47.86
2023-01-28T04:27:24.734Z,45.44
2023-01-28T04:28:24.710Z,46.73
2023-01-28T04:29:24.689Z,46.25
2023-01-28T04:30:24.701Z,44.15
2023-01-28T04:31:24.710Z,47.37
2023-01-28T04:32:24.674Z,47.70
2023-01-28T04:33:24.633Z,48.18
2023-01-28T04:34:24.645Z,45.92
2023-01-28T04:35:24.614Z,49.95
2023-01-28T04:36:24.622Z,48.18
2023-01-28T04:37:24.630Z,46.25
2023-01-28T04:38:24.612Z,46.25
2023-01-28T04:39:24.559Z,50.60
2023-01-28T04:40:24.577Z,43.83
2023-01-28T04:41:24.593Z,43.83
2023-01-28T04:42:24.542Z,47.05
2023-01-28T04:43:24.558Z,46.25
2023-01-28T04:44:24.546Z,46.89
2023-01-28T04:45:24.509Z,48.98
2023-01-28T04:46:24.556Z,45.12
2023-01-28T04:47:24.524Z,43.83
2023-01-28T04:48:24.504Z,43.83
2023-01-28T04:49:24.468Z,43.18
2023-01-28T04:50:24.472Z,46.73
2023-01-28T04:51:24.489Z,44.47
2023-01-28T04:52:24.475Z,43.83
2023-01-28T04:53:24.433Z,47.86
2023-01-28T04:54:24.429Z,46.08
2023-01-28T04:55:24.446Z,43.51
2023-01-28T04:56:24.430Z,46.57
2023-01-28T04:57:24.399Z,46.25
2023-01-28T04:58:24.425Z,49.15
2023-01-28T04:59:24.374Z,46.25
2023-01-28T05:00:24.375Z,45.28
2023-01-28T05:01:24.385Z,44.96
2023-01-28T05:02:24.357Z,45.12
2023-01-28T05:03:24.321Z,45.60
2023-01-28T05:04:24.331Z,47.05
2023-01-28T05:05:24.363Z,45.76
2023-01-28T05:06:24.312Z,44.96
2023-01-28T05:07:24.314Z,45.28
2023-01-28T05:08:24.313Z,45.12
2023-01-28T05:09:24.291Z,49.15
2023-01-28T05:10:24.291Z,49.31
2023-01-28T05:11:24.293Z,46.89
2023-01-28T05:12:24.259Z,45.28
2023-01-28T05:13:24.232Z,45.44
2023-01-28T05:14:24.263Z,46.25
2023-01-28T05:15:24.207Z,45.12
2023-01-28T05:16:24.204Z,46.25
2023-01-28T05:17:24.274Z,46.73
2023-01-28T05:18:24.210Z,47.86
2023-01-28T05:19:24.171Z,43.67
2023-01-28T05:20:24.171Z,44.31
2023-01-28T05:21:24.179Z,50.43
2023-01-28T05:22:24.194Z,49.47
2023-01-28T05:23:24.126Z,49.31
2023-01-28T05:24:24.189Z,46.57
2023-01-28T05:25:24.153Z,48.82
2023-01-28T05:26:24.127Z,47.21
2023-01-28T05:27:24.094Z,49.31
2023-01-28T05:28:24.095Z,49.15
2023-01-28T05:29:24.102Z,47.21
2023-01-28T05:30:24.048Z,47.21
2023-01-28T05:31:24.070Z,47.86
2023-01-28T05:32:24.077Z,50.92
2023-01-28T05:33:24.034Z,46.73
2023-01-28T05:34:24.040Z,49.79
2023-01-28T05:35:24.035Z,47.21
2023-01-28T05:36:24.024Z,47.86
2023-01-28T05:37:23.983Z,50.11
2023-01-28T05:38:24.014Z,47.86
2023-01-28T05:39:23.955Z,48.50
2023-01-28T05:40:23.976Z,51.56
2023-01-28T05:41:23.963Z,50.11
2023-01-28T05:42:23.939Z,46.89
2023-01-28T05:43:23.939Z,51.24
2023-01-28T05:44:23.933Z,47.21
2023-01-28T05:45:24.020Z,48.82
2023-01-28T05:46:23.882Z,46.89
2023-01-28T05:47:23.909Z,47.05
2023-01-28T05:48:23.900Z,48.50
2023-01-28T05:49:23.880Z,47.05
2023-01-28T05:50:23.866Z,45.60
2023-01-28T05:51:23.879Z,46.57
2023-01-28T05:52:24.853Z,45.12
2023-01-28T05:53:23.817Z,50.60
2023-01-28T05:54:23.845Z,49.31
2023-01-28T05:55:23.824Z,47.70
2023-01-28T05:56:23.801Z,47.21
2023-01-28T05:57:23.784Z,46.25
2023-01-28T05:58:23.785Z,48.18
2023-01-28T05:59:23.796Z,45.28
2023-01-28T06:00:23.822Z,47.21
2023-01-28T06:01:23.729Z,43.99
2023-01-28T06:02:23.798Z,47.21
2023-01-28T06:03:23.705Z,49.79
2023-01-28T06:04:23.705Z,46.89
2023-01-28T06:05:23.803Z,50.11
2023-01-28T06:06:23.690Z,44.96
2023-01-28T06:07:23.680Z,46.57
2023-01-28T06:08:23.671Z,48.82
2023-01-28T06:09:23.680Z,48.98
2023-01-28T06:10:23.628Z,45.76
2023-01-28T06:11:23.653Z,46.08
2023-01-28T06:12:23.633Z,50.76
2023-01-28T06:13:23.643Z,46.25
2023-01-28T06:14:23.609Z,46.89
2023-01-28T06:15:23.611Z,46.73
2023-01-28T06:16:23.604Z,45.28
2023-01-28T06:17:23.563Z,46.73
2023-01-28T06:18:23.586Z,50.92
2023-01-28T06:19:23.557Z,49.47
2023-01-28T06:20:23.540Z,50.92
2023-01-28T06:21:23.563Z,53.98
2023-01-28T06:22:23.549Z,48.02
2023-01-28T06:23:23.503Z,48.34
2023-01-28T06:24:23.533Z,50.11
2023-01-28T06:25:23.522Z,53.01
2023-01-28T06:26:23.482Z,52.53
2023-01-28T06:27:23.461Z,50.11
2023-01-28T06:28:23.458Z,45.44
2023-01-28T06:29:23.479Z,48.02
2023-01-28T06:30:23.442Z,49.47
2023-01-28T06:31:23.419Z,48.18
2023-01-28T06:32:23.482Z,45.28
2023-01-28T06:33:23.423Z,47.70
2023-01-28T06:34:23.390Z,51.24
2023-01-28T06:35:23.407Z,52.05
2023-01-28T06:36:23.377Z,51.08
2023-01-28T06:37:26.118Z,48.34
2023-01-28T06:38:23.375Z,50.43
2023-01-28T06:39:23.375Z,48.98
2023-01-28T06:40:23.364Z,49.47
2023-01-28T06:41:23.311Z,51.24
2023-01-28T06:42:23.325Z,49.47
2023-01-28T06:43:23.287Z,48.18
2023-01-28T06:44:23.312Z,49.15
2023-01-28T06:45:23.305Z,46.25
2023-01-28T06:46:23.308Z,49.63
2023-01-28T06:47:23.243Z,48.34
2023-01-28T06:48:24.241Z,49.95
2023-01-28T06:49:23.263Z,55.59
2023-01-28T06:50:23.253Z,50.92
2023-01-28T06:51:23.231Z,51.40
2023-01-28T06:52:23.226Z,51.40
2023-01-28T06:53:23.180Z,48.34
2023-01-28T06:54:23.185Z,48.82
2023-01-28T06:55:23.197Z,47.53
2023-01-28T06:56:23.172Z,48.98
2023-01-28T06:57:23.166Z,48.82
2023-01-28T06:58:23.164Z,46.89
2023-01-28T06:59:23.169Z,47.70
2023-01-28T07:00:23.156Z,49.79
2023-01-28T07:01:24.150Z,46.08
2023-01-28T07:02:23.108Z,47.37
2023-01-28T07:03:23.113Z,45.60
2023-01-28T07:04:23.092Z,46.89
2023-01-28T07:05:23.069Z,47.86
2023-01-28T07:06:23.080Z,50.43
2023-01-28T07:07:23.067Z,52.53
2023-01-28T07:08:23.063Z,51.88
2023-01-28T07:09:23.078Z,49.15
2023-01-28T07:10:23.057Z,47.70
2023-01-28T07:11:23.004Z,50.27
2023-01-28T07:12:23.007Z,51.56
2023-01-28T07:13:23.035Z,53.33
2023-01-28T07:14:22.971Z,47.86
2023-01-28T07:15:23.014Z,50.60
2023-01-28T07:16:23.001Z,49.95
2023-01-28T07:17:22.969Z,47.53
2023-01-28T07:18:22.954Z,51.24
2023-01-28T07:19:22.956Z,48.98
2023-01-28T07:20:22.939Z,54.14
2023-01-28T07:21:22.922Z,50.60
2023-01-28T07:22:22.926Z,52.05
2023-01-28T07:23:22.879Z,48.50
2023-01-28T07:24:22.889Z,53.98
2023-01-28T07:25:22.898Z,49.47
2023-01-28T07:26:22.873Z,49.47
2023-01-28T07:27:22.835Z,50.60
2023-01-28T07:28:22.837Z,51.40
2023-01-28T07:29:22.843Z,52.85
2023-01-28T07:30:22.831Z,47.53
2023-01-28T07:31:22.921Z,50.27
2023-01-28T07:32:22.787Z,48.50
2023-01-28T07:33:22.809Z,47.86
2023-01-28T07:34:22.777Z,47.05
2023-01-28T07:35:22.750Z,47.86
2023-01-28T07:36:22.759Z,48.98
2023-01-28T07:37:22.758Z,51.40
2023-01-28T07:38:22.711Z,49.95
2023-01-28T07:39:22.733Z,50.27
2023-01-28T07:40:22.727Z,50.11
2023-01-28T07:41:22.693Z,50.27
2023-01-28T07:42:22.699Z,50.92
2023-01-28T07:43:22.695Z,53.50
2023-01-28T07:44:22.681Z,51.72
2023-01-28T07:45:22.641Z,53.01
2023-01-28T07:46:22.675Z,55.75
2023-01-28T07:47:22.670Z,51.24
2023-01-28T07:48:22.615Z,53.17
2023-01-28T07:49:22.628Z,50.27
2023-01-28T07:50:22.602Z,48.18
2023-01-28T07:51:22.585Z,49.95
2023-01-28T07:52:22.573Z,48.34
2023-01-28T07:53:22.599Z,50.60
2023-01-28T07:54:22.545Z,47.70
2023-01-28T07:55:22.573Z,52.53
2023-01-28T07:56:22.589Z,50.43
2023-01-28T07:57:22.514Z,50.92
2023-01-28T07:58:22.521Z,47.86
2023-01-28T07:59:22.525Z,50.43
2023-01-28T08:00:22.500Z,48.82
2023-01-28T08:01:22.522Z,48.34
2023-01-28T08:02:22.475Z,47.21
2023-01-28T08:03:22.454Z,50.43
2023-01-28T08:04:22.553Z,49.63
2023-01-28T08:05:22.626Z,53.01
2023-01-28T08:06:22.488Z,51.40
2023-01-28T08:07:22.412Z,50.43
2023-01-28T08:08:22.416Z,49.79
2023-01-28T08:09:22.428Z,50.43
2023-01-28T08:10:22.383Z,50.27
2023-01-28T08:11:22.408Z,51.08
2023-01-28T08:12:22.399Z,49.47
2023-01-28T08:13:22.356Z,49.79
2023-01-28T08:14:22.354Z,49.95
2023-01-28T08:15:22.385Z,51.56
2023-01-28T08:16:22.336Z,48.02
2023-01-28T08:17:22.305Z,53.82
2023-01-28T08:18:22.334Z,53.82
2023-01-28T08:19:22.311Z,52.85
2023-01-28T08:20:22.297Z,54.62
2023-01-28T08:21:22.311Z,47.70
2023-01-28T08:22:22.276Z,52.69
2023-01-28T08:23:24.301Z,50.27
2023-01-28T08:24:23.292Z,53.66
2023-01-28T08:25:22.261Z,53.66
2023-01-28T08:26:22.254Z,53.33
2023-01-28T08:27:22.237Z,52.85
2023-01-28T08:28:22.217Z,51.24
2023-01-28T08:29:22.186Z,49.31
2023-01-28T08:30:22.214Z,53.01
2023-01-28T08:31:22.274Z,50.11
2023-01-28T08:32:22.184Z,53.01
2023-01-28T08:33:22.158Z,48.98
2023-01-28T08:34:22.151Z,51.56
2023-01-28T08:35:22.161Z,52.53
2023-01-28T08:36:22.138Z,54.46
2023-01-28T08:37:22.117Z,54.95
2023-01-28T08:38:22.122Z,51.72
2023-01-28T08:39:22.113Z,50.43
2023-01-28T08:40:22.095Z,51.56
2023-01-28T08:41:22.075Z,51.56
2023-01-28T08:42:22.080Z,51.56
2023-01-28T08:43:22.065Z,53.66
2023-01-28T08:44:22.059Z,52.05
2023-01-28T08:45:22.059Z,53.01
2023-01-28T08:46:22.087Z,52.37
2023-01-28T08:47:21.998Z,53.01
2023-01-28T08:48:22.021Z,51.72
2023-01-28T08:49:22.022Z,52.37
2023-01-28T08:50:21.971Z,52.53
2023-01-28T08:51:21.985Z,50.27
2023-01-28T08:52:21.992Z,53.98
2023-01-28T08:53:21.940Z,50.27
2023-01-28T08:54:21.944Z,52.05
2023-01-28T08:55:21.959Z,53.17
2023-01-28T08:56:21.918Z,52.69
2023-01-28T08:57:21.899Z,53.98
2023-01-28T08:58:21.943Z,53.01
2023-01-28T08:59:21.875Z,51.40
2023-01-28T09:00:21.876Z,50.60
2023-01-28T09:01:21.940Z,51.24
2023-01-28T09:02:31.136Z,50.92
2023-01-28T09:03:23.915Z,52.53
2023-01-28T09:04:21.837Z,51.24
2023-01-28T09:05:21.847Z,51.88
2023-01-28T09:06:21.827Z,52.37
2023-01-28T09:07:21.794Z,51.72
2023-01-28T09:08:23.713Z,50.92
2023-01-28T09:09:21.800Z,51.40
2023-01-28T09:10:21.790Z,49.95
2023-01-28T09:11:21.747Z,50.43
2023-01-28T09:12:21.750Z,50.11
2023-01-28T09:13:21.780Z,51.24
2023-01-28T09:14:21.724Z,48.18
2023-01-28T09:15:21.727Z,50.11
2023-01-28T09:16:21.769Z,51.40
2023-01-28T09:17:21.691Z,52.69
2023-01-28T09:18:21.695Z,53.82
2023-01-28T09:19:21.715Z,51.24
2023-01-28T09:20:21.672Z,51.88
2023-01-28T09:21:21.646Z,53.01
2023-01-28T09:22:21.684Z,48.66
2023-01-28T09:23:21.628Z,53.01
2023-01-28T09:24:21.660Z,51.56
2023-01-28T09:25:21.635Z,50.43
2023-01-28T09:26:21.614Z,53.50
2023-01-28T09:27:21.581Z,51.24
2023-01-28T09:28:21.604Z,47.05
2023-01-28T09:29:21.601Z,51.72
2023-01-28T09:30:21.593Z,51.56
2023-01-28T09:31:21.650Z,51.72
2023-01-28T09:32:21.605Z,50.11
2023-01-28T09:33:21.537Z,51.08
2023-01-28T09:34:21.534Z,56.07
2023-01-28T09:35:21.523Z,54.14
2023-01-28T09:36:22.500Z,52.69
2023-01-28T09:37:21.478Z,51.08
2023-01-28T09:38:21.481Z,54.95
2023-01-28T09:39:21.493Z,55.11
2023-01-28T09:40:21.470Z,53.33
2023-01-28T09:41:21.490Z,52.53
2023-01-28T09:42:21.433Z,52.85
2023-01-28T09:43:21.445Z,52.85
2023-01-28T09:44:21.434Z,51.88
2023-01-28T09:45:21.404Z,52.21
2023-01-28T09:46:21.439Z,54.62
2023-01-28T09:47:21.379Z,52.85
2023-01-28T09:48:22.379Z,55.27
2023-01-28T09:49:21.414Z,54.30
2023-01-28T09:50:21.396Z,54.62
2023-01-28T09:51:21.362Z,55.11
2023-01-28T09:52:21.336Z,55.43
2023-01-28T09:53:21.357Z,51.40
2023-01-28T09:54:21.303Z,52.21
2023-01-28T09:55:21.329Z,51.72
2023-01-28T09:56:21.298Z,52.05
2023-01-28T09:57:21.304Z,53.98
2023-01-28T09:58:21.282Z,52.05
2023-01-28T09:59:21.281Z,54.30
2023-01-28T10:00:21.583Z,51.72
2023-01-28T10:01:21.235Z,52.21
2023-01-28T10:02:21.260Z,52.53
2023-01-28T10:03:21.211Z,53.50
2023-01-28T10:04:21.202Z,51.56
2023-01-28T10:05:21.258Z,53.33
2023-01-28T10:06:21.225Z,54.95
2023-01-28T10:07:21.161Z,52.53
2023-01-28T10:08:21.163Z,50.92
2023-01-28T10:09:21.173Z,53.17
2023-01-28T10:10:21.180Z,51.88
2023-01-28T10:11:21.182Z,51.08
2023-01-28T10:12:21.127Z,50.27
2023-01-28T10:13:22.090Z,50.43
2023-01-28T10:14:22.097Z,52.21
2023-01-28T10:15:21.108Z,51.08
2023-01-28T10:16:21.116Z,50.60
2023-01-28T10:17:21.121Z,52.53
2023-01-28T10:18:21.098Z,53.17
2023-01-28T10:19:21.024Z,51.40
2023-01-28T10:20:21.060Z,52.21
2023-01-28T10:21:21.046Z,50.43
2023-01-28T10:22:21.047Z,51.40
2023-01-28T10:23:20.985Z,50.60
2023-01-28T10:24:21.181Z,49.95
2023-01-28T10:25:21.006Z,48.82
2023-01-28T10:26:20.971Z,48.18
2023-01-28T10:27:20.999Z,53.17
2023-01-28T10:28:20.969Z,52.21
2023-01-28T10:29:20.955Z,50.60
2023-01-28T10:30:20.946Z,54.79
2023-01-28T10:31:20.969Z,54.30
2023-01-28T10:32:20.934Z,53.66
2023-01-28T10:33:20.881Z,56.24
2023-01-28T10:34:20.907Z,54.79
2023-01-28T10:35:20.864Z,53.50
2023-01-28T10:36:20.876Z,54.46
2023-01-28T10:37:20.902Z,56.56
2023-01-28T10:38:20.908Z,51.72
2023-01-28T10:39:20.812Z,55.59
2023-01-28T10:40:20.864Z,51.88
2023-01-28T10:41:20.840Z,53.33
2023-01-28T10:42:20.869Z,50.76
2023-01-28T10:43:20.829Z,51.72
2023-01-28T10:44:20.830Z,54.46
2023-01-28T10:45:20.799Z,55.43
2023-01-28T10:46:20.826Z,53.82
2023-01-28T10:47:20.743Z,56.72
2023-01-28T10:48:20.764Z,53.50
2023-01-28T10:49:20.758Z,55.11
2023-01-28T10:50:20.710Z,55.27
2023-01-28T10:51:20.770Z,53.17
2023-01-28T10:52:20.704Z,55.59
2023-01-28T10:53:21.701Z,54.62
2023-01-28T10:54:20.685Z,56.88
2023-01-28T10:55:20.692Z,56.07
2023-01-28T10:56:20.691Z,56.88
2023-01-28T10:57:20.658Z,54.79
2023-01-28T10:58:20.692Z,55.43
2023-01-28T10:59:20.630Z,53.50
2023-01-28T11:00:20.632Z,54.62
2023-01-28T11:01:20.702Z,52.53
2023-01-28T11:02:20.644Z,54.46
2023-01-28T11:03:20.598Z,54.30
2023-01-28T11:04:20.592Z,55.75
2023-01-28T11:05:20.594Z,54.79
2023-01-28T11:06:20.569Z,54.95
2023-01-28T11:07:20.600Z,59.14
2023-01-28T11:08:20.877Z,64.94
2023-01-28T11:09:20.526Z,64.29
2023-01-28T11:10:20.528Z,64.13
2023-01-28T11:11:20.528Z,64.78
2023-01-28T11:12:20.525Z,64.61
2023-01-28T11:13:20.487Z,65.10
2023-01-28T11:14:20.486Z,64.61
2023-01-28T11:15:20.493Z,64.29
2023-01-28T11:16:20.493Z,65.74
2023-01-28T11:17:20.512Z,65.10
2023-01-28T11:18:20.444Z,65.42
2023-01-28T11:19:20.464Z,54.30
2023-01-28T11:20:20.439Z,51.72
2023-01-28T11:21:20.840Z,56.72
2023-01-28T11:22:20.452Z,53.33
2023-01-28T11:23:20.401Z,53.82
2023-01-28T11:24:20.496Z,55.91
2023-01-28T11:25:20.391Z,54.79
2023-01-28T11:26:20.405Z,59.94
2023-01-28T11:27:20.356Z,63.97
2023-01-28T11:28:20.361Z,64.13
2023-01-28T11:29:20.377Z,64.94
2023-01-28T11:30:20.311Z,65.10
2023-01-28T11:31:20.388Z,65.10
2023-01-28T11:32:20.344Z,64.13
2023-01-28T11:33:20.288Z,64.61
2023-01-28T11:34:20.312Z,64.13
2023-01-28T11:35:20.319Z,64.45
2023-01-28T11:36:20.281Z,64.61
2023-01-28T11:37:20.253Z,54.46
2023-01-28T11:38:20.285Z,57.52
2023-01-28T11:39:20.221Z,55.75
2023-01-28T11:40:21.203Z,53.33
2023-01-28T11:41:20.237Z,55.11
2023-01-28T11:42:20.214Z,53.82
2023-01-28T11:43:20.207Z,53.66
2023-01-28T11:44:20.186Z,53.50
2023-01-28T11:45:20.200Z,53.33
2023-01-28T11:46:20.275Z,54.62
2023-01-28T11:47:20.291Z,54.95
2023-01-28T11:48:20.155Z,51.40
2023-01-28T11:49:20.174Z,54.30
2023-01-28T11:50:20.384Z,53.98
2023-01-28T11:51:20.111Z,50.92
2023-01-28T11:52:20.150Z,55.43
2023-01-28T11:53:20.134Z,54.46
2023-01-28T11:54:20.106Z,55.75
2023-01-28T11:55:20.120Z,56.72
2023-01-28T11:56:20.085Z,53.01
2023-01-28T11:57:20.043Z,63.97
2023-01-28T11:58:20.111Z,64.45
2023-01-28T11:59:20.087Z,63.97
2023-01-28T12:00:20.433Z,64.78
2023-01-28T12:01:20.007Z,64.61
2023-01-28T12:02:20.046Z,64.29
2023-01-28T12:03:20.015Z,65.10
2023-01-28T12:04:19.985Z,64.45
2023-01-28T12:05:20.021Z,65.10
2023-01-28T12:06:19.971Z,64.29
2023-01-28T12:07:19.955Z,55.59
2023-01-28T12:08:19.955Z,55.75
2023-01-28T12:09:19.957Z,55.75
2023-01-28T12:10:19.903Z,51.88
2023-01-28T12:11:19.948Z,55.11
2023-01-28T12:12:19.899Z,54.62
2023-01-28T12:13:19.883Z,63.49
2023-01-28T12:14:19.876Z,64.45
2023-01-28T12:15:19.895Z,64.45
2023-01-28T12:16:19.929Z,64.61
2023-01-28T12:17:19.836Z,64.13
2023-01-28T12:18:19.868Z,64.29
2023-01-28T12:19:19.822Z,64.29
2023-01-28T12:20:19.841Z,63.97
2023-01-28T12:21:19.856Z,64.29
2023-01-28T12:22:19.805Z,64.29
2023-01-28T12:23:19.794Z,64.94
2023-01-28T12:24:19.935Z,64.78
2023-01-28T12:25:19.807Z,63.97
2023-01-28T12:26:19.774Z,64.45
2023-01-28T12:27:19.780Z,64.29
2023-01-28T12:28:19.743Z,61.39
2023-01-28T12:29:19.711Z,58.17
2023-01-28T12:30:19.733Z,55.27
2023-01-28T12:31:19.867Z,57.36
2023-01-28T12:32:19.743Z,58.01
2023-01-28T12:33:19.687Z,57.04
2023-01-28T12:34:19.724Z,55.91
2023-01-28T12:35:19.657Z,55.59
2023-01-28T12:36:19.664Z,55.91
2023-01-28T12:37:19.659Z,58.17
2023-01-28T12:38:19.646Z,54.79
2023-01-28T12:39:19.618Z,56.72
2023-01-28T12:40:19.732Z,56.88
2023-01-28T12:41:19.631Z,56.24
2023-01-28T12:42:19.572Z,57.36
2023-01-28T12:43:19.603Z,56.24
2023-01-28T12:44:19.592Z,56.07
2023-01-28T12:45:19.556Z,53.98
2023-01-28T12:46:19.557Z,53.01
2023-01-28T12:47:19.567Z,51.24
2023-01-28T12:48:19.562Z,56.07
2023-01-28T12:49:19.503Z,56.56
2023-01-28T12:50:19.545Z,56.88
2023-01-28T12:51:19.520Z,54.46
2023-01-28T12:52:19.508Z,53.82